sensor_id;sensor_type;location;lat;lon;timestamp;pressure;altitude;pressure_sealevel;temperature
24740;BMP280;45234;48.148;17.128;2022-11-03T00:00:09;100791.59;;;11.58
24740;BMP280;45234;48.148;17.128;2022-11-03T00:02:38;100796.13;;;11.56
24740;BMP280;45234;48.148;17.128;2022-11-03T00:05:05;100792.31;;;11.52
24740;BMP280;45234;48.148;17.128;2022-11-03T00:07:51;100801.09;;;11.51
24740;BMP280;45234;48.148;17.128;2022-11-03T00:10:18;100794.28;;;11.50
24740;BMP280;45234;48.148;17.128;2022-11-03T00:12:44;100808.25;;;11.49
24740;BMP280;45234;48.148;17.128;2022-11-03T00:15:11;100811.19;;;11.46
24740;BMP280;45234;48.148;17.128;2022-11-03T00:17:38;100807.34;;;11.42
24740;BMP280;45234;48.148;17.128;2022-11-03T00:20:04;100801.72;;;11.39
24740;BMP280;45234;48.148;17.128;2022-11-03T00:22:31;100810.63;;;11.36
24740;BMP280;45234;48.148;17.128;2022-11-03T00:24:59;100812.00;;;11.32
24740;BMP280;45234;48.148;17.128;2022-11-03T00:27:26;100812.97;;;11.31
24740;BMP280;45234;48.148;17.128;2022-11-03T00:29:54;100812.53;;;11.27
24740;BMP280;45234;48.148;17.128;2022-11-03T00:32:21;100802.31;;;11.26
24740;BMP280;45234;48.148;17.128;2022-11-03T00:34:48;100812.69;;;11.26
24740;BMP280;45234;48.148;17.128;2022-11-03T00:37:18;100812.25;;;11.22
24740;BMP280;45234;48.148;17.128;2022-11-03T00:39:45;100810.44;;;11.23
24740;BMP280;45234;48.148;17.128;2022-11-03T00:42:11;100807.41;;;11.19
24740;BMP280;45234;48.148;17.128;2022-11-03T00:44:38;100814.75;;;11.16
24740;BMP280;45234;48.148;17.128;2022-11-03T00:47:07;100815.06;;;11.13
24740;BMP280;45234;48.148;17.128;2022-11-03T00:49:33;100807.47;;;11.11
24740;BMP280;45234;48.148;17.128;2022-11-03T00:52:00;100808.66;;;11.09
24740;BMP280;45234;48.148;17.128;2022-11-03T00:54:27;100804.44;;;11.08
24740;BMP280;45234;48.148;17.128;2022-11-03T00:56:54;100807.22;;;11.06
24740;BMP280;45234;48.148;17.128;2022-11-03T00:59:21;100803.81;;;11.06
24740;BMP280;45234;48.148;17.128;2022-11-03T01:01:48;100809.97;;;11.05
24740;BMP280;45234;48.148;17.128;2022-11-03T01:04:15;100806.72;;;11.03
24740;BMP280;45234;48.148;17.128;2022-11-03T01:07:00;100799.59;;;11.05
24740;BMP280;45234;48.148;17.128;2022-11-03T01:09:33;100800.41;;;11.05
24740;BMP280;45234;48.148;17.128;2022-11-03T01:12:02;100803.00;;;11.05
24740;BMP280;45234;48.148;17.128;2022-11-03T01:14:33;100797.94;;;11.04
24740;BMP280;45234;48.148;17.128;2022-11-03T01:17:01;100798.34;;;11.01
24740;BMP280;45234;48.148;17.128;2022-11-03T01:19:27;100785.06;;;10.95
24740;BMP280;45234;48.148;17.128;2022-11-03T01:21:54;100782.19;;;10.90
24740;BMP280;45234;48.148;17.128;2022-11-03T01:24:20;100783.53;;;10.86
24740;BMP280;45234;48.148;17.128;2022-11-03T01:26:47;100788.09;;;10.84
24740;BMP280;45234;48.148;17.128;2022-11-03T01:29:14;100775.44;;;10.81
24740;BMP280;45234;48.148;17.128;2022-11-03T01:31:40;100771.41;;;10.79
24740;BMP280;45234;48.148;17.128;2022-11-03T01:34:11;100768.41;;;10.75
24740;BMP280;45234;48.148;17.128;2022-11-03T01:36:38;100773.75;;;10.74
24740;BMP280;45234;48.148;17.128;2022-11-03T01:39:05;100777.84;;;10.68
24740;BMP280;45234;48.148;17.128;2022-11-03T01:41:32;100774.63;;;10.66
24740;BMP280;45234;48.148;17.128;2022-11-03T01:49:18;100760.09;;;10.57
24740;BMP280;45234;48.148;17.128;2022-11-03T01:51:47;100758.84;;;10.53
24740;BMP280;45234;48.148;17.128;2022-11-03T01:54:14;100758.03;;;10.52
24740;BMP280;45234;48.148;17.128;2022-11-03T01:56:44;100761.91;;;10.48
24740;BMP280;45234;48.148;17.128;2022-11-03T01:59:14;100755.94;;;10.48
24740;BMP280;45234;48.148;17.128;2022-11-03T02:01:41;100753.00;;;10.51
24740;BMP280;45234;48.148;17.128;2022-11-03T02:04:13;100760.31;;;10.47
24740;BMP280;45234;48.148;17.128;2022-11-03T02:06:44;100758.25;;;10.43
24740;BMP280;45234;48.148;17.128;2022-11-03T02:09:13;100752.09;;;10.44
24740;BMP280;45234;48.148;17.128;2022-11-03T02:11:39;100731.03;;;10.39
24740;BMP280;45234;48.148;17.128;2022-11-03T02:14:25;100748.19;;;10.40
24740;BMP280;45234;48.148;17.128;2022-11-03T02:16:52;100744.97;;;10.38
24740;BMP280;45234;48.148;17.128;2022-11-03T02:24:49;100743.38;;;10.37
24740;BMP280;45234;48.148;17.128;2022-11-03T02:27:19;100731.41;;;10.36
24740;BMP280;45234;48.148;17.128;2022-11-03T02:29:46;100730.59;;;10.35
24740;BMP280;45234;48.148;17.128;2022-11-03T02:34:41;100732.78;;;10.23
24740;BMP280;45234;48.148;17.128;2022-11-03T02:37:16;100730.81;;;10.25
24740;BMP280;45234;48.148;17.128;2022-11-03T02:39:46;100722.41;;;10.23
24740;BMP280;45234;48.148;17.128;2022-11-03T02:42:14;100717.22;;;10.23
24740;BMP280;45234;48.148;17.128;2022-11-03T02:44:42;100718.38;;;10.21
24740;BMP280;45234;48.148;17.128;2022-11-03T02:47:10;100725.50;;;10.19
24740;BMP280;45234;48.148;17.128;2022-11-03T02:49:39;100724.25;;;10.15
24740;BMP280;45234;48.148;17.128;2022-11-03T02:52:06;100727.63;;;10.15
24740;BMP280;45234;48.148;17.128;2022-11-03T02:54:34;100726.66;;;10.16
24740;BMP280;45234;48.148;17.128;2022-11-03T02:57:03;100720.22;;;10.12
24740;BMP280;45234;48.148;17.128;2022-11-03T02:59:34;100724.28;;;10.07
24740;BMP280;45234;48.148;17.128;2022-11-03T03:02:07;100726.41;;;10.03
24740;BMP280;45234;48.148;17.128;2022-11-03T03:04:40;100723.22;;;10.01
24740;BMP280;45234;48.148;17.128;2022-11-03T03:10:05;100722.41;;;10.01
24740;BMP280;45234;48.148;17.128;2022-11-03T03:12:33;100698.00;;;9.87
24740;BMP280;45234;48.148;17.128;2022-11-03T03:15:01;100729.03;;;9.95
24740;BMP280;45234;48.148;17.128;2022-11-03T03:22:48;100716.47;;;9.84
24740;BMP280;45234;48.148;17.128;2022-11-03T03:25:21;100723.59;;;9.82
24740;BMP280;45234;48.148;17.128;2022-11-03T03:27:51;100724.91;;;9.78
24740;BMP280;45234;48.148;17.128;2022-11-03T03:30:19;100715.53;;;9.77
24740;BMP280;45234;48.148;17.128;2022-11-03T03:32:47;100722.34;;;9.78
24740;BMP280;45234;48.148;17.128;2022-11-03T03:35:18;100714.91;;;9.75
24740;BMP280;45234;48.148;17.128;2022-11-03T03:37:47;100718.97;;;9.69
24740;BMP280;45234;48.148;17.128;2022-11-03T03:40:16;100707.19;;;9.67
24740;BMP280;45234;48.148;17.128;2022-11-03T03:42:45;100709.78;;;9.67
24740;BMP280;45234;48.148;17.128;2022-11-03T03:45:12;100706.53;;;9.65
24740;BMP280;45234;48.148;17.128;2022-11-03T03:47:39;100699.44;;;9.58
24740;BMP280;45234;48.148;17.128;2022-11-03T03:50:06;100702.34;;;9.55
24740;BMP280;45234;48.148;17.128;2022-11-03T03:52:33;100703.31;;;9.54
24740;BMP280;45234;48.148;17.128;2022-11-03T03:55:01;100704.94;;;9.55
24740;BMP280;45234;48.148;17.128;2022-11-03T03:57:29;100698.94;;;9.55
24740;BMP280;45234;48.148;17.128;2022-11-03T03:59:57;100699.13;;;9.53
24740;BMP280;45234;48.148;17.128;2022-11-03T04:02:23;100690.53;;;9.53
24740;BMP280;45234;48.148;17.128;2022-11-03T04:04:50;100705.91;;;9.54
24740;BMP280;45234;48.148;17.128;2022-11-03T04:07:16;100697.50;;;9.52
24740;BMP280;45234;48.148;17.128;2022-11-03T04:10:09;100688.75;;;9.53
24740;BMP280;45234;48.148;17.128;2022-11-03T04:12:35;100695.56;;;9.54
24740;BMP280;45234;48.148;17.128;2022-11-03T04:15:20;100695.72;;;9.53
24740;BMP280;45234;48.148;17.128;2022-11-03T04:18:05;100700.09;;;9.52
24740;BMP280;45234;48.148;17.128;2022-11-03T04:20:50;100699.13;;;9.53
24740;BMP280;45234;48.148;17.128;2022-11-03T04:23:36;100681.97;;;9.52
24740;BMP280;45234;48.148;17.128;2022-11-03T04:26:02;100682.13;;;9.51
24740;BMP280;45234;48.148;17.128;2022-11-03T04:28:31;100683.91;;;9.50
24740;BMP280;45234;48.148;17.128;2022-11-03T04:30:58;100691.88;;;9.49
24740;BMP280;45234;48.148;17.128;2022-11-03T04:33:25;100680.09;;;9.46
24740;BMP280;45234;48.148;17.128;2022-11-03T04:35:52;100679.09;;;9.47
24740;BMP280;45234;48.148;17.128;2022-11-03T04:38:21;100682.66;;;9.46
24740;BMP280;45234;48.148;17.128;2022-11-03T04:40:51;100670.81;;;9.52
24740;BMP280;45234;48.148;17.128;2022-11-03T04:43:21;100675.66;;;9.55
24740;BMP280;45234;48.148;17.128;2022-11-03T04:45:48;100670.97;;;9.58
24740;BMP280;45234;48.148;17.128;2022-11-03T04:48:19;100666.94;;;9.56
24740;BMP280;45234;48.148;17.128;2022-11-03T04:50:48;100665.47;;;9.53
24740;BMP280;45234;48.148;17.128;2022-11-03T04:53:16;100663.06;;;9.52
24740;BMP280;45234;48.148;17.128;2022-11-03T04:55:43;100654.47;;;9.51
24740;BMP280;45234;48.148;17.128;2022-11-03T04:58:16;100647.34;;;9.53
24740;BMP280;45234;48.148;17.128;2022-11-03T05:00:43;100643.78;;;9.54
24740;BMP280;45234;48.148;17.128;2022-11-03T05:03:18;100648.97;;;9.54
24740;BMP280;45234;48.148;17.128;2022-11-03T05:05:46;100657.06;;;9.51
24740;BMP280;45234;48.148;17.128;2022-11-03T05:08:12;100651.72;;;9.53
24740;BMP280;45234;48.148;17.128;2022-11-03T05:10:41;100652.88;;;9.50
24740;BMP280;45234;48.148;17.128;2022-11-03T05:13:15;100648.06;;;9.47
24740;BMP280;45234;48.148;17.128;2022-11-03T05:15:43;100647.25;;;9.47
24740;BMP280;45234;48.148;17.128;2022-11-03T05:18:30;100653.22;;;9.47
24740;BMP280;45234;48.148;17.128;2022-11-03T05:23:24;100661.97;;;9.46
24740;BMP280;45234;48.148;17.128;2022-11-03T05:25:52;100663.25;;;9.42
24740;BMP280;45234;48.148;17.128;2022-11-03T05:28:36;100663.25;;;9.42
24740;BMP280;45234;48.148;17.128;2022-11-03T05:33:50;100664.22;;;9.41
24740;BMP280;45234;48.148;17.128;2022-11-03T05:36:18;100678.59;;;9.44
24740;BMP280;45234;48.148;17.128;2022-11-03T05:38:45;100671.50;;;9.46
24740;BMP280;45234;48.148;17.128;2022-11-03T05:41:13;100671.66;;;9.44
24740;BMP280;45234;48.148;17.128;2022-11-03T05:43:41;100665.53;;;9.45
24740;BMP280;45234;48.148;17.128;2022-11-03T05:46:08;100670.00;;;9.51
24740;BMP280;45234;48.148;17.128;2022-11-03T05:48:38;100669.38;;;9.57
24740;BMP280;45234;48.148;17.128;2022-11-03T05:51:17;100663.81;;;9.60
24740;BMP280;45234;48.148;17.128;2022-11-03T05:53:44;100659.75;;;9.66
24740;BMP280;45234;48.148;17.128;2022-11-03T05:56:17;100652.47;;;9.70
24740;BMP280;45234;48.148;17.128;2022-11-03T05:58:45;100662.47;;;9.73
24740;BMP280;45234;48.148;17.128;2022-11-03T06:01:31;100664.91;;;9.74
24740;BMP280;45234;48.148;17.128;2022-11-03T06:03:59;100665.84;;;9.81
24740;BMP280;45234;48.148;17.128;2022-11-03T06:06:33;100665.97;;;9.88
24740;BMP280;45234;48.148;17.128;2022-11-03T06:09:01;100663.31;;;9.96
24740;BMP280;45234;48.148;17.128;2022-11-03T06:11:32;100664.25;;;10.03
24740;BMP280;45234;48.148;17.128;2022-11-03T06:14:00;100678.75;;;10.12
24740;BMP280;45234;48.148;17.128;2022-11-03T06:18:58;100676.47;;;10.17
24740;BMP280;45234;48.148;17.128;2022-11-03T06:21:25;100692.34;;;10.14
24740;BMP280;45234;48.148;17.128;2022-11-03T06:23:52;100689.13;;;10.12
24740;BMP280;45234;48.148;17.128;2022-11-03T06:27:33;100689.06;;;10.20
24740;BMP280;45234;48.148;17.128;2022-11-03T06:30:01;100683.22;;;10.26
24740;BMP280;45234;48.148;17.128;2022-11-03T06:32:29;100687.47;;;10.19
24740;BMP280;45234;48.148;17.128;2022-11-03T06:34:58;100688.44;;;10.18
24740;BMP280;45234;48.148;17.128;2022-11-03T06:37:26;100691.03;;;10.18
24740;BMP280;45234;48.148;17.128;2022-11-03T06:40:26;100690.72;;;10.13
24740;BMP280;45234;48.148;17.128;2022-11-03T06:42:52;100696.16;;;10.26
24740;BMP280;45234;48.148;17.128;2022-11-03T06:45:20;100700.91;;;10.38
24740;BMP280;45234;48.148;17.128;2022-11-03T06:47:47;100685.19;;;10.39
24740;BMP280;45234;48.148;17.128;2022-11-03T06:50:32;100691.84;;;10.42
24740;BMP280;45234;48.148;17.128;2022-11-03T06:53:01;100687.34;;;10.58
24740;BMP280;45234;48.148;17.128;2022-11-03T06:55:36;100690.22;;;10.78
24740;BMP280;45234;48.148;17.128;2022-11-03T06:58:06;100678.38;;;10.84
24740;BMP280;45234;48.148;17.128;2022-11-03T07:00:38;100695.97;;;10.88
24740;BMP280;45234;48.148;17.128;2022-11-03T07:03:10;100691.69;;;11.10
24740;BMP280;45234;48.148;17.128;2022-11-03T07:05:39;100693.13;;;11.27
24740;BMP280;45234;48.148;17.128;2022-11-03T07:10:45;100696.75;;;11.62
24740;BMP280;45234;48.148;17.128;2022-11-03T07:13:13;100704.34;;;11.79
24740;BMP280;45234;48.148;17.128;2022-11-03T07:15:41;100702.03;;;12.05
24740;BMP280;45234;48.148;17.128;2022-11-03T07:18:22;100684.94;;;12.17
24740;BMP280;45234;48.148;17.128;2022-11-03T07:20:49;100690.38;;;12.44
24740;BMP280;45234;48.148;17.128;2022-11-03T07:23:18;100693.81;;;12.51
24740;BMP280;45234;48.148;17.128;2022-11-03T07:25:49;100697.56;;;12.70
24740;BMP280;45234;48.148;17.128;2022-11-03T07:28:19;100694.00;;;12.77
24740;BMP280;45234;48.148;17.128;2022-11-03T07:30:46;100690.09;;;12.88
24740;BMP280;45234;48.148;17.128;2022-11-03T07:33:15;100694.63;;;12.79
24740;BMP280;45234;48.148;17.128;2022-11-03T07:35:44;100690.81;;;12.75
24740;BMP280;45234;48.148;17.128;2022-11-03T07:38:31;100688.56;;;12.72
24740;BMP280;45234;48.148;17.128;2022-11-03T07:41:00;100690.13;;;12.94
24740;BMP280;45234;48.148;17.128;2022-11-03T07:43:28;100688.44;;;13.15
24740;BMP280;45234;48.148;17.128;2022-11-03T07:45:57;100688.28;;;13.36
24740;BMP280;45234;48.148;17.128;2022-11-03T07:48:27;100689.19;;;13.56
24740;BMP280;45234;48.148;17.128;2022-11-03T07:50:55;100675.59;;;13.67
24740;BMP280;45234;48.148;17.128;2022-11-03T07:53:57;100680.22;;;13.79
24740;BMP280;45234;48.148;17.128;2022-11-03T07:56:26;100677.63;;;13.79
24740;BMP280;45234;48.148;17.128;2022-11-03T07:58:56;100678.81;;;13.69
24740;BMP280;45234;48.148;17.128;2022-11-03T08:01:33;100672.44;;;13.92
24740;BMP280;45234;48.148;17.128;2022-11-03T08:04:05;100668.59;;;14.01
24740;BMP280;45234;48.148;17.128;2022-11-03T08:06:32;100665.22;;;14.14
24740;BMP280;45234;48.148;17.128;2022-11-03T08:08:58;100664.63;;;14.25
24740;BMP280;45234;48.148;17.128;2022-11-03T08:11:25;100665.22;;;14.33
24740;BMP280;45234;48.148;17.128;2022-11-03T08:13:55;100667.59;;;14.48
24740;BMP280;45234;48.148;17.128;2022-11-03T08:16:21;100661.41;;;14.29
24740;BMP280;45234;48.148;17.128;2022-11-03T08:18:48;100659.78;;;14.22
24740;BMP280;45234;48.148;17.128;2022-11-03T08:21:15;100653.78;;;14.08
24740;BMP280;45234;48.148;17.128;2022-11-03T08:23:44;100656.38;;;13.95
24740;BMP280;45234;48.148;17.128;2022-11-03T08:26:14;100660.75;;;13.75
24740;BMP280;45234;48.148;17.128;2022-11-03T08:28:41;100657.97;;;13.69
24740;BMP280;45234;48.148;17.128;2022-11-03T08:31:08;100655.50;;;13.48
24740;BMP280;45234;48.148;17.128;2022-11-03T08:33:38;100650.41;;;13.27
24740;BMP280;45234;48.148;17.128;2022-11-03T08:36:08;100643.38;;;13.08
24740;BMP280;45234;48.148;17.128;2022-11-03T08:38:35;100647.44;;;12.82
24740;BMP280;45234;48.148;17.128;2022-11-03T08:41:01;100642.53;;;12.66
24740;BMP280;45234;48.148;17.128;2022-11-03T08:43:28;100638.94;;;12.67
24740;BMP280;45234;48.148;17.128;2022-11-03T08:45:55;100632.25;;;12.86
24740;BMP280;45234;48.148;17.128;2022-11-03T08:48:25;100636.88;;;12.97
24740;BMP280;45234;48.148;17.128;2022-11-03T08:50:55;100632.94;;;13.08
24740;BMP280;45234;48.148;17.128;2022-11-03T08:53:22;100630.16;;;13.16
24740;BMP280;45234;48.148;17.128;2022-11-03T08:55:50;100637.41;;;13.20
24740;BMP280;45234;48.148;17.128;2022-11-03T08:58:16;100629.53;;;13.07
24740;BMP280;45234;48.148;17.128;2022-11-03T09:00:44;100635.69;;;12.99
24740;BMP280;45234;48.148;17.128;2022-11-03T09:03:11;100631.34;;;13.07
24740;BMP280;45234;48.148;17.128;2022-11-03T09:05:39;100617.16;;;13.16
24740;BMP280;45234;48.148;17.128;2022-11-03T09:08:05;100617.56;;;13.26
24740;BMP280;45234;48.148;17.128;2022-11-03T09:10:52;100617.78;;;13.37
24740;BMP280;45234;48.148;17.128;2022-11-03T09:13:19;100611.19;;;13.35
24740;BMP280;45234;48.148;17.128;2022-11-03T09:15:46;100600.59;;;13.43
24740;BMP280;45234;48.148;17.128;2022-11-03T09:18:12;100601.81;;;13.47
24740;BMP280;45234;48.148;17.128;2022-11-03T09:20:39;100594.94;;;13.26
24740;BMP280;45234;48.148;17.128;2022-11-03T09:23:05;100589.31;;;13.23
24740;BMP280;45234;48.148;17.128;2022-11-03T09:25:33;100581.72;;;13.21
24740;BMP280;45234;48.148;17.128;2022-11-03T09:28:00;100577.34;;;13.22
24740;BMP280;45234;48.148;17.128;2022-11-03T09:30:26;100577.72;;;13.19
24740;BMP280;45234;48.148;17.128;2022-11-03T09:32:54;100581.28;;;13.11
24740;BMP280;45234;48.148;17.128;2022-11-03T09:35:21;100580.91;;;13.08
24740;BMP280;45234;48.148;17.128;2022-11-03T09:37:48;100574.09;;;13.07
24740;BMP280;45234;48.148;17.128;2022-11-03T09:40:14;100575.25;;;12.97
24740;BMP280;45234;48.148;17.128;2022-11-03T09:42:42;100565.44;;;12.99
24740;BMP280;45234;48.148;17.128;2022-11-03T09:45:08;100551.31;;;12.68
24740;BMP280;45234;48.148;17.128;2022-11-03T09:47:39;100556.56;;;12.74
24740;BMP280;45234;48.148;17.128;2022-11-03T09:50:10;100545.97;;;12.82
24740;BMP280;45234;48.148;17.128;2022-11-03T09:52:38;100539.56;;;12.91
24740;BMP280;45234;48.148;17.128;2022-11-03T09:55:08;100535.97;;;12.86
24740;BMP280;45234;48.148;17.128;2022-11-03T09:57:38;100528.19;;;12.92
24740;BMP280;45234;48.148;17.128;2022-11-03T10:00:06;100530.19;;;13.03
24740;BMP280;45234;48.148;17.128;2022-11-03T10:02:35;100518.59;;;12.99
24740;BMP280;45234;48.148;17.128;2022-11-03T10:05:04;100510.75;;;12.93
24740;BMP280;45234;48.148;17.128;2022-11-03T10:07:36;100512.81;;;13.11
24740;BMP280;45234;48.148;17.128;2022-11-03T10:10:03;100510.97;;;13.05
24740;BMP280;45234;48.148;17.128;2022-11-03T10:12:31;100490.19;;;13.11
24740;BMP280;45234;48.148;17.128;2022-11-03T10:15:00;100497.19;;;13.11
24740;BMP280;45234;48.148;17.128;2022-11-03T10:17:28;100493.75;;;13.03
24740;BMP280;45234;48.148;17.128;2022-11-03T10:19:56;100488.56;;;13.03
24740;BMP280;45234;48.148;17.128;2022-11-03T10:22:23;100479.19;;;13.09
24740;BMP280;45234;48.148;17.128;2022-11-03T10:25:23;100483.59;;;13.09
24740;BMP280;45234;48.148;17.128;2022-11-03T10:27:37;100477.19;;;13.18
24740;BMP280;45234;48.148;17.128;2022-11-03T10:30:05;100473.59;;;13.32
24740;BMP280;45234;48.148;17.128;2022-11-03T10:32:32;100462.78;;;13.35
24740;BMP280;45234;48.148;17.128;2022-11-03T10:35:49;100455.38;;;13.45
24740;BMP280;45234;48.148;17.128;2022-11-03T10:37:50;100451.16;;;13.44
24740;BMP280;45234;48.148;17.128;2022-11-03T10:43:15;100442.53;;;13.63
24740;BMP280;45234;48.148;17.128;2022-11-03T10:45:42;100446.34;;;13.67
24740;BMP280;45234;48.148;17.128;2022-11-03T10:48:08;100440.34;;;13.67
24740;BMP280;45234;48.148;17.128;2022-11-03T10:50:37;100436.53;;;13.56
24740;BMP280;45234;48.148;17.128;2022-11-03T10:53:09;100441.91;;;13.75
24740;BMP280;45234;48.148;17.128;2022-11-03T10:55:39;100419.91;;;13.70
24740;BMP280;45234;48.148;17.128;2022-11-03T10:58:06;100421.66;;;13.77
24740;BMP280;45234;48.148;17.128;2022-11-03T11:00:33;100410.25;;;13.78
24740;BMP280;45234;48.148;17.128;2022-11-03T11:03:00;100415.81;;;13.88
24740;BMP280;45234;48.148;17.128;2022-11-03T11:05:27;100411.22;;;13.90
24740;BMP280;45234;48.148;17.128;2022-11-03T11:07:55;100394.41;;;13.79
24740;BMP280;45234;48.148;17.128;2022-11-03T11:10:25;100396.06;;;13.74
24740;BMP280;45234;48.148;17.128;2022-11-03T11:15:42;100387.03;;;13.69
24740;BMP280;45234;48.148;17.128;2022-11-03T11:18:09;100391.88;;;13.59
24740;BMP280;45234;48.148;17.128;2022-11-03T11:20:37;100390.25;;;13.58
24740;BMP280;45234;48.148;17.128;2022-11-03T11:28:41;100374.59;;;13.65
24740;BMP280;45234;48.148;17.128;2022-11-03T11:31:31;100373.16;;;13.76
24740;BMP280;45234;48.148;17.128;2022-11-03T11:36:36;100373.31;;;13.94
24740;BMP280;45234;48.148;17.128;2022-11-03T11:39:03;100366.91;;;13.96
24740;BMP280;45234;48.148;17.128;2022-11-03T11:47:01;100345.97;;;14.10
24740;BMP280;45234;48.148;17.128;2022-11-03T11:49:27;100333.13;;;14.15
24740;BMP280;45234;48.148;17.128;2022-11-03T11:51:54;100331.91;;;14.17
24740;BMP280;45234;48.148;17.128;2022-11-03T11:54:26;100330.47;;;14.21
24740;BMP280;45234;48.148;17.128;2022-11-03T11:56:52;100326.25;;;14.27
24740;BMP280;45234;48.148;17.128;2022-11-03T11:59:21;100316.63;;;14.27
24740;BMP280;45234;48.148;17.128;2022-11-03T12:01:52;100309.94;;;14.31
24740;BMP280;45234;48.148;17.128;2022-11-03T12:06:47;100296.22;;;14.42
24740;BMP280;45234;48.148;17.128;2022-11-03T12:09:17;100287.56;;;14.49
24740;BMP280;45234;48.148;17.128;2022-11-03T12:17:31;100277.47;;;14.59
24740;BMP280;45234;48.148;17.128;2022-11-03T12:19:47;100273.41;;;14.63
24740;BMP280;45234;48.148;17.128;2022-11-03T12:24:51;100267.78;;;14.66
24740;BMP280;45234;48.148;17.128;2022-11-03T12:27:42;100266.25;;;14.58
24740;BMP280;45234;48.148;17.128;2022-11-03T12:30:13;100256.59;;;14.59
24740;BMP280;45234;48.148;17.128;2022-11-03T12:32:40;100247.63;;;14.73
24740;BMP280;45234;48.148;17.128;2022-11-03T12:35:07;100234.75;;;14.78
24740;BMP280;45234;48.148;17.128;2022-11-03T12:37:34;100228.66;;;15.02
24740;BMP280;45234;48.148;17.128;2022-11-03T12:40:01;100227.94;;;15.13
24740;BMP280;45234;48.148;17.128;2022-11-03T12:42:28;100218.28;;;15.32
24740;BMP280;45234;48.148;17.128;2022-11-03T12:44:56;100210.34;;;15.39
24740;BMP280;45234;48.148;17.128;2022-11-03T12:47:23;100206.00;;;15.51
24740;BMP280;45234;48.148;17.128;2022-11-03T12:49:50;100196.00;;;15.60
24740;BMP280;45234;48.148;17.128;2022-11-03T12:52:17;100197.53;;;15.67
24740;BMP280;45234;48.148;17.128;2022-11-03T12:54:43;100194.25;;;15.72
24740;BMP280;45234;48.148;17.128;2022-11-03T12:57:10;100177.31;;;15.74
24740;BMP280;45234;48.148;17.128;2022-11-03T12:59:37;100182.63;;;15.79
24740;BMP280;45234;48.148;17.128;2022-11-03T13:02:03;100179.25;;;15.79
24740;BMP280;45234;48.148;17.128;2022-11-03T13:04:30;100170.03;;;15.76
24740;BMP280;45234;48.148;17.128;2022-11-03T13:06:57;100163.78;;;15.77
24740;BMP280;45234;48.148;17.128;2022-11-03T13:09:23;100159.13;;;15.79
24740;BMP280;45234;48.148;17.128;2022-11-03T13:11:50;100156.75;;;15.78
24740;BMP280;45234;48.148;17.128;2022-11-03T13:14:35;100154.03;;;15.84
24740;BMP280;45234;48.148;17.128;2022-11-03T13:17:51;100148.72;;;16.26
24740;BMP280;45234;48.148;17.128;2022-11-03T13:19:30;100147.56;;;16.22
24740;BMP280;45234;48.148;17.128;2022-11-03T13:19:43;100150.63;;;16.42
24740;BMP280;45234;48.148;17.128;2022-11-03T13:19:56;100154.59;;;16.56
24740;BMP280;45234;48.148;17.128;2022-11-03T13:20:08;100147.94;;;16.66
24740;BMP280;45234;48.148;17.128;2022-11-03T13:20:21;100150.88;;;16.81
24740;BMP280;45234;48.148;17.128;2022-11-03T13:20:34;100155.78;;;16.89
24740;BMP280;45234;48.148;17.128;2022-11-03T13:20:47;100141.28;;;16.98
24740;BMP280;45234;48.148;17.128;2022-11-03T13:21:00;100145.56;;;17.04
24740;BMP280;45234;48.148;17.128;2022-11-03T13:21:13;100144.63;;;17.10
24740;BMP280;45234;48.148;17.128;2022-11-03T13:21:26;100147.91;;;17.17
24740;BMP280;45234;48.148;17.128;2022-11-03T13:21:39;100151.19;;;17.24
24740;BMP280;45234;48.148;17.128;2022-11-03T13:21:52;100147.84;;;17.29
24740;BMP280;45234;48.148;17.128;2022-11-03T13:22:04;100152.63;;;17.32
24740;BMP280;45234;48.148;17.128;2022-11-03T13:22:17;100147.47;;;17.37
24740;BMP280;45234;48.148;17.128;2022-11-03T13:22:32;100146.75;;;17.42
24740;BMP280;45234;48.148;17.128;2022-11-03T13:22:45;100149.69;;;17.45
24740;BMP280;45234;48.148;17.128;2022-11-03T13:22:57;100146.94;;;17.52
24740;BMP280;45234;48.148;17.128;2022-11-03T13:23:11;100147.22;;;17.55
24740;BMP280;45234;48.148;17.128;2022-11-03T13:23:26;100151.22;;;17.58
24740;BMP280;45234;48.148;17.128;2022-11-03T13:23:39;100147.09;;;17.62
24740;BMP280;45234;48.148;17.128;2022-11-03T13:23:52;100152.41;;;17.67
24740;BMP280;45234;48.148;17.128;2022-11-03T13:24:05;100149.88;;;17.72
24740;BMP280;45234;48.148;17.128;2022-11-03T13:24:17;100151.22;;;17.74
24740;BMP280;45234;48.148;17.128;2022-11-03T13:24:30;100140.50;;;17.76
24740;BMP280;45234;48.148;17.128;2022-11-03T13:24:43;100154.69;;;17.80
24740;BMP280;45234;48.148;17.128;2022-11-03T13:24:55;100155.06;;;17.84
24740;BMP280;45234;48.148;17.128;2022-11-03T13:25:08;100159.00;;;17.86
24740;BMP280;45234;48.148;17.128;2022-11-03T13:25:21;100145.41;;;17.89
24740;BMP280;45234;48.148;17.128;2022-11-03T13:25:36;100147.53;;;17.92
24740;BMP280;45234;48.148;17.128;2022-11-03T13:25:48;100147.06;;;17.95
24740;BMP280;45234;48.148;17.128;2022-11-03T13:26:01;100152.38;;;18.00
24740;BMP280;45234;48.148;17.128;2022-11-03T13:26:14;100152.94;;;18.02
24740;BMP280;45234;48.148;17.128;2022-11-03T13:26:27;100144.03;;;18.03
24740;BMP280;45234;48.148;17.128;2022-11-03T13:26:39;100148.81;;;18.06
24740;BMP280;45234;48.148;17.128;2022-11-03T13:26:52;100149.34;;;18.08
24740;BMP280;45234;48.148;17.128;2022-11-03T13:27:05;100143.06;;;18.09
24740;BMP280;45234;48.148;17.128;2022-11-03T13:27:17;100141.00;;;18.11
24740;BMP280;45234;48.148;17.128;2022-11-03T13:29:50;100146.28;;;17.61
24740;BMP280;45234;48.148;17.128;2022-11-03T13:32:17;100150.66;;;17.56
24740;BMP280;45234;48.148;17.128;2022-11-03T13:34:44;100144.88;;;17.54
24740;BMP280;45234;48.148;17.128;2022-11-03T13:37:10;100138.84;;;17.53
24740;BMP280;45234;48.148;17.128;2022-11-03T13:39:37;100136.44;;;17.52